Time;durP1;ratioP1;P1;durP2;ratioP2;P2;SDS_P1;SDS_P2;PMS_P1;PMS_P2;Temp;Humidity;BMP_temperature;BMP_pressure;BME280_temperature;BME280_humidity;BME280_pressure;Samples;Min_cycle;Max_cycle;Signal;HPM_P1;HPM_P2
2022/11/10 00:00:31;;;;;;;21.88;2.85;;;;;;;10.39;100.00;101548.41;5026288;28;20108;-67
2022/11/10 00:03:04;;;;;;;17.25;2.30;;;;;;;10.36;100.00;101553.56;5013971;28;20116;-68
2022/11/10 00:05:30;;;;;;;30.77;3.75;;;;;;;10.37;100.00;101550.09;5019853;28;20056;-67
2022/11/10 00:07:56;;;;;;;18.48;3.05;;;;;;;10.33;100.00;101563.09;5030062;28;20041;-68
2022/11/10 00:10:22;;;;;;;22.90;3.25;;;;;;;10.26;100.00;101556.75;5014262;28;20017;-67
2022/11/10 00:12:47;;;;;;;21.98;3.38;;;;;;;10.23;100.00;101561.94;5014350;28;20099;-67
2022/11/10 00:17:56;;;;;;;23.75;3.17;;;;;;;10.17;100.00;101561.75;5014251;28;20041;-68
2022/11/10 00:20:22;;;;;;;15.75;2.63;;;;;;;10.17;100.00;101569.63;5014441;28;20025;-68
2022/11/10 00:22:47;;;;;;;25.30;3.75;;;;;;;10.13;100.00;101571.28;5021731;28;20374;-68
2022/11/10 00:25:12;;;;;;;13.30;2.45;;;;;;;10.11;100.00;101573.88;5022017;28;20026;-69
2022/11/10 00:27:38;;;;;;;16.45;2.53;;;;;;;10.13;100.00;101573.91;5023504;28;20396;-68
2022/11/10 00:30:04;;;;;;;22.50;3.35;;;;;;;10.15;100.00;101574.84;5026660;28;20025;-67
2022/11/10 00:32:30;;;;;;;17.70;2.55;;;;;;;10.17;100.00;101567.88;5028202;28;20545;-67
2022/11/10 00:34:55;;;;;;;22.13;3.25;;;;;;;10.20;100.00;101583.78;5027801;28;20104;-67
2022/11/10 00:37:21;;;;;;;24.30;3.03;;;;;;;10.23;100.00;101567.22;5023303;28;20053;-68
2022/11/10 00:39:46;;;;;;;22.00;3.42;;;;;;;10.23;100.00;101568.09;5032806;28;20523;-69
2022/11/10 00:42:11;;;;;;;20.85;3.05;;;;;;;10.27;100.00;101564.69;5030544;28;20025;-67
2022/11/10 00:44:37;;;;;;;19.88;3.08;;;;;;;10.24;100.00;101574.22;5022860;28;20061;-68
2022/11/10 00:47:02;;;;;;;19.23;2.83;;;;;;;10.21;100.00;101579.41;5018471;28;20030;-66
2022/11/10 00:49:27;;;;;;;23.15;3.08;;;;;;;10.20;100.00;101577.63;5016810;28;20026;-67
2022/11/10 00:51:53;;;;;;;23.42;5.03;;;;;;;10.17;100.00;101586.28;5018283;28;20032;-68
2022/11/10 00:54:19;;;;;;;17.40;2.90;;;;;;;10.19;100.00;101591.63;5023061;28;20034;-68
2022/11/10 00:56:44;;;;;;;16.35;3.05;;;;;;;10.20;100.00;101596.03;5023663;28;20468;-68
2022/11/10 00:59:09;;;;;;;15.25;3.17;;;;;;;10.17;100.00;101585.41;5017855;28;20512;-68
2022/11/10 01:01:35;;;;;;;26.08;3.60;;;;;;;10.17;100.00;101590.69;5023837;28;20041;-67
2022/11/10 01:04:00;;;;;;;16.92;3.05;;;;;;;10.17;100.00;101588.06;5023352;28;20115;-67
2022/11/10 01:06:25;;;;;;;28.50;4.00;;;;;;;10.20;100.00;101593.38;5029455;28;20029;-67
2022/11/10 01:08:51;;;;;;;34.70;6.13;;;;;;;10.16;100.00;101591.50;5032258;28;20115;-67
2022/11/10 01:11:22;;;;;;;32.13;4.38;;;;;;;10.15;100.00;101589.72;5020989;28;20029;-67
2022/11/10 01:13:50;;;;;;;17.38;3.30;;;;;;;10.14;100.00;101594.09;5022650;28;20109;-69
2022/11/10 01:16:18;;;;;;;19.17;3.75;;;;;;;10.16;100.00;101599.41;5016021;28;20040;-68
2022/11/10 01:18:48;;;;;;;18.95;3.90;;;;;;;10.17;100.00;101599.44;5032306;28;20370;-67
2022/11/10 01:21:14;;;;;;;22.88;4.07;;;;;;;10.18;100.00;101603.88;5013234;28;20026;-67
2022/11/10 01:23:39;;;;;;;23.83;4.38;;;;;;;10.18;100.00;101597.72;5021391;28;20039;-68
2022/11/10 01:26:06;;;;;;;22.02;4.40;;;;;;;10.21;100.00;101595.19;5017632;28;20128;-66
2022/11/10 01:28:32;;;;;;;27.95;3.72;;;;;;;10.19;100.00;101599.53;5028515;28;20398;-67
2022/11/10 01:30:57;;;;;;;26.30;3.47;;;;;;;10.19;100.00;101599.53;5025931;28;20524;-68
2022/11/10 01:33:23;;;;;;;28.60;3.90;;;;;;;10.19;100.00;101602.16;5022450;28;20034;-66
2022/11/10 01:35:48;;;;;;;25.75;4.50;;;;;;;10.21;100.00;101600.44;5023354;28;20116;-66
2022/11/10 01:38:13;;;;;;;25.63;4.32;;;;;;;10.19;100.00;101602.16;5013079;28;20029;-67
2022/11/10 01:40:39;;;;;;;19.17;4.03;;;;;;;10.21;100.00;101600.44;5012653;28;20470;-67
2022/11/10 01:43:04;;;;;;;19.10;3.70;;;;;;;10.20;100.00;101604.81;5015102;28;20215;-68
2022/11/10 01:46:00;;;;;;;25.52;3.63;;;;;;;10.19;100.00;101602.16;5012824;28;20421;-68
2022/11/10 01:48:34;;;;;;;39.35;4.90;;;;;;;10.16;100.00;101602.03;5014071;28;20121;-67
2022/11/10 01:51:05;;;;;;;18.80;3.53;;;;;;;10.12;100.00;101620.38;5012522;28;20018;-67
2022/11/10 01:53:35;;;;;;;23.65;4.30;;;;;;;10.16;100.00;101620.44;5029389;28;20116;-67
2022/11/10 01:56:01;;;;;;;25.23;4.03;;;;;;;10.15;100.00;101626.53;5031845;28;20410;-67
2022/11/10 01:58:32;;;;;;;30.13;4.82;;;;;;;10.12;100.00;101628.25;5022054;28;20025;-68
2022/11/10 02:00:57;;;;;;;28.05;3.78;;;;;;;10.15;100.00;101634.44;5026295;28;20035;-68
2022/11/10 02:03:30;;;;;;;26.02;3.58;;;;;;;10.11;100.00;101646.63;5021562;28;20482;-68
2022/11/10 02:05:56;;;;;;;23.40;3.33;;;;;;;10.05;100.00;101644.69;5017029;28;20046;-68
2022/11/10 02:08:24;;;;;;;27.30;4.00;;;;;;;10.01;100.00;101640.19;5033066;28;20040;-68
2022/11/10 02:10:49;;;;;;;25.23;4.47;;;;;;;9.99;100.00;101651.50;5033773;28;20045;-67
2022/11/10 02:13:15;;;;;;;37.60;4.25;;;;;;;10.01;100.00;101650.69;5022086;28;20587;-67
2022/11/10 02:15:41;;;;;;;25.23;4.57;;;;;;;9.98;100.00;101653.22;5031665;28;20104;-68
2022/11/10 02:18:06;;;;;;;28.35;5.57;;;;;;;9.96;100.00;101663.69;5026297;28;20045;-68
2022/11/10 02:20:32;;;;;;;35.75;4.72;;;;;;;9.91;100.00;101660.00;5022626;28;20026;-67
2022/11/10 02:22:57;;;;;;;24.42;3.72;;;;;;;9.91;100.00;101665.25;5020721;28;20072;-68
2022/11/10 02:25:31;;;;;;;32.85;4.28;;;;;;;9.91;100.00;101670.53;5016482;28;20041;-68
2022/11/10 02:27:57;;;;;;;26.63;3.85;;;;;;;9.91;100.00;101677.53;5023489;28;20038;-68
2022/11/10 02:30:22;;;;;;;32.25;4.65;;;;;;;9.91;100.00;101677.53;5019936;28;20030;-68
2022/11/10 02:32:47;;;;;;;16.73;4.07;;;;;;;9.90;100.00;101678.34;5030156;28;20041;-66
2022/11/10 02:35:13;;;;;;;19.80;3.45;;;;;;;9.93;100.00;101679.38;5028832;28;20591;-67
2022/11/10 02:37:38;;;;;;;28.88;3.53;;;;;;;9.92;100.00;101687.22;5018067;28;20026;-68
2022/11/10 02:40:04;;;;;;;26.88;4.30;;;;;;;9.93;100.00;101691.63;5030737;28;20084;-68
2022/11/10 02:42:29;;;;;;;28.30;3.70;;;;;;;9.94;100.00;101690.75;5026184;28;20038;-68
2022/11/10 02:44:56;;;;;;;23.02;3.78;;;;;;;9.92;100.00;101689.84;5015805;28;20026;-68
2022/11/10 02:47:22;;;;;;;28.98;3.80;;;;;;;9.92;100.00;101687.22;5028800;28;20448;-68
2022/11/10 02:49:47;;;;;;;24.67;4.70;;;;;;;9.92;100.00;101697.72;5020376;28;20014;-68
2022/11/10 02:52:13;;;;;;;24.42;4.38;;;;;;;9.89;100.00;101694.97;5020238;28;20060;-68
2022/11/10 02:54:38;;;;;;;21.63;3.33;;;;;;;9.85;100.00;101698.34;5025331;28;20362;-67
2022/11/10 02:57:03;;;;;;;19.10;2.83;;;;;;;9.82;100.00;101700.88;5020537;28;20053;-66
2022/11/10 02:59:28;;;;;;;19.90;3.35;;;;;;;9.78;100.00;101711.28;5028060;28;20028;-67
2022/11/10 03:01:54;;;;;;;27.50;3.83;;;;;;;9.77;100.00;101704.25;5020878;28;20030;-67
2022/11/10 03:04:19;;;;;;;34.75;4.80;;;;;;;9.74;100.00;101709.41;5030705;28;20045;-67
2022/11/10 03:06:45;;;;;;;22.67;3.38;;;;;;;9.76;100.00;101718.22;5032383;28;20063;-67
2022/11/10 03:09:10;;;;;;;15.27;2.83;;;;;;;9.73;100.00;101718.13;5034978;28;20017;-68
2022/11/10 03:11:35;;;;;;;18.70;3.63;;;;;;;9.72;100.00;101721.59;5025591;28;20061;-68
2022/11/10 03:14:01;;;;;;;16.02;3.50;;;;;;;9.69;100.00;101721.50;5023588;28;20134;-67
2022/11/10 03:16:26;;;;;;;24.98;3.63;;;;;;;9.66;100.00;101716.13;5028108;28;20025;-69
2022/11/10 03:18:51;;;;;;;30.13;4.13;;;;;;;9.67;100.00;101720.56;5015846;28;20029;-65
2022/11/10 03:21:17;;;;;;;34.47;3.80;;;;;;;9.64;100.00;101711.66;5015442;28;20034;-68
2022/11/10 03:23:42;;;;;;;23.73;4.03;;;;;;;9.60;100.00;101721.16;5015013;28;20553;-67
2022/11/10 03:26:08;;;;;;;20.67;3.63;;;;;;;9.61;100.00;101722.97;5027480;28;20087;-67
2022/11/10 03:28:33;;;;;;;26.65;4.07;;;;;;;9.62;100.00;101728.25;5029254;28;20033;-66
2022/11/10 03:30:59;;;;;;;23.50;3.28;;;;;;;9.64;100.00;101732.69;5020566;28;20030;-68
2022/11/10 03:33:25;;;;;;;32.25;4.10;;;;;;;9.60;100.00;101729.03;5030946;28;20033;-67
2022/11/10 03:35:50;;;;;;;25.60;4.80;;;;;;;9.59;100.00;101733.41;5034859;28;20129;-67
2022/11/10 03:38:15;;;;;;;21.90;3.60;;;;;;;9.62;100.00;101728.25;5021444;28;20397;-66
2022/11/10 03:40:41;;;;;;;24.67;3.92;;;;;;;9.59;100.00;101727.25;5031279;28;20393;-68
2022/11/10 03:43:07;;;;;;;19.00;3.30;;;;;;;9.59;100.00;101737.75;5027232;28;20044;-68
2022/11/10 03:45:32;;;;;;;21.52;3.30;;;;;;;9.59;100.00;101743.94;5026567;28;20425;-67
2022/11/10 03:47:57;;;;;;;21.50;3.80;;;;;;;9.57;100.00;101736.84;5022569;28;20041;-68
2022/11/10 03:50:23;;;;;;;29.52;3.95;;;;;;;9.54;100.00;101742.00;5029686;28;20030;-67
2022/11/10 03:52:48;;;;;;;20.40;3.30;;;;;;;9.56;100.00;101743.84;5014885;28;20362;-67
2022/11/10 03:55:16;;;;;;;16.25;3.10;;;;;;;9.55;100.00;101760.44;5028980;28;20037;-67
2022/11/10 03:57:42;;;;;;;30.50;3.72;;;;;;;9.56;100.00;101761.31;5026966;28;20032;-67
2022/11/10 04:00:08;;;;;;;18.70;3.17;;;;;;;9.55;100.00;101759.53;5031182;28;20078;-67
2022/11/10 04:02:35;;;;;;;26.42;5.60;;;;;;;9.54;100.00;101763.00;5028100;28;20025;-67
2022/11/10 04:10:28;;;;;;;;;;;;;;;9.56;100.00;101779.72;5026885;28;20405;-68
2022/11/10 04:15:40;;;;;;;17.02;3.17;;;;;;;9.54;100.00;101784.03;5018759;28;20096;-67
2022/11/10 04:18:25;;;;;;;25.48;2.80;;;;;;;9.55;100.00;101780.53;5014267;28;20414;-68
2022/11/10 04:21:01;;;;;;;25.92;3.95;;;;;;;9.57;100.00;101784.13;5015866;28;20427;-67
2022/11/10 04:23:34;;;;;;;25.10;3.83;;;;;;;9.62;100.00;101778.19;5013709;28;20109;-69
2022/11/10 04:28:58;;;;;;;22.45;4.40;;;;;;;9.70;100.00;101788.06;5014608;28;20048;-68
2022/11/10 04:31:25;;;;;;;31.00;3.80;;;;;;;9.69;100.00;101787.19;5025666;28;20542;-68
2022/11/10 04:33:52;;;;;;;25.35;4.00;;;;;;;9.75;100.00;101792.69;5030905;28;20060;-68
2022/11/10 04:36:23;;;;;;;37.47;5.38;;;;;;;9.73;100.00;101804.84;5020209;28;20379;-68
2022/11/10 04:38:48;;;;;;;14.13;3.42;;;;;;;9.76;100.00;101812.84;5019567;28;20040;-68
2022/11/10 04:41:14;;;;;;;21.13;3.85;;;;;;;9.73;100.00;101811.84;5032928;28;20037;-69
2022/11/10 04:43:40;;;;;;;26.73;4.07;;;;;;;9.75;100.00;101818.03;5024592;28;20729;-69
2022/11/10 04:46:20;;;;;;;25.48;4.10;;;;;;;9.73;100.00;101818.00;5022516;28;20029;-67
2022/11/10 04:48:46;;;;;;;23.30;3.85;;;;;;;9.74;100.00;101822.41;5029515;28;20083;-66
2022/11/10 04:51:11;;;;;;;17.98;4.32;;;;;;;9.73;100.00;101825.88;5023177;28;20473;-67
2022/11/10 04:53:36;;;;;;;22.48;3.80;;;;;;;9.72;100.00;101836.34;5028352;28;20052;-66
2022/11/10 04:56:02;;;;;;;18.65;3.85;;;;;;;9.71;100.00;101840.72;5015963;28;20042;-67
2022/11/10 04:58:27;;;;;;;20.67;4.13;;;;;;;9.69;100.00;101837.13;5018119;28;20028;-67
2022/11/10 05:00:52;;;;;;;31.58;4.03;;;;;;;9.72;100.00;101834.59;5024419;28;20030;-67
2022/11/10 05:03:18;;;;;;;31.25;4.30;;;;;;;9.69;100.00;101831.88;5031543;28;20064;-68
2022/11/10 05:05:43;;;;;;;23.08;4.07;;;;;;;9.67;100.00;101830.03;5024121;28;20037;-68
2022/11/10 05:08:09;;;;;;;19.65;3.90;;;;;;;9.66;100.00;101829.13;5033397;28;20061;-68
2022/11/10 05:10:36;;;;;;;13.95;4.45;;;;;;;9.68;100.00;101840.59;5023587;28;20048;-67
2022/11/10 05:13:03;;;;;;;21.75;4.15;;;;;;;9.64;100.00;101828.19;5014440;28;20101;-67
2022/11/10 05:15:29;;;;;;;19.63;4.70;;;;;;;9.63;100.00;101834.28;5017589;28;20026;-69
2022/11/10 05:17:55;;;;;;;18.45;4.50;;;;;;;9.68;100.00;101840.59;5018711;28;20076;-67
2022/11/10 05:20:22;;;;;;;35.00;4.88;;;;;;;9.74;100.00;101846.06;5015260;28;20097;-67
2022/11/10 05:25:36;;;;;;;18.33;4.93;;;;;;;9.73;100.00;101844.28;5024386;28;20048;-68
2022/11/10 05:28:03;;;;;;;24.42;4.82;;;;;;;9.74;100.00;101848.72;5032159;28;20041;-68
2022/11/10 05:30:28;;;;;;;25.48;4.28;;;;;;;9.73;100.00;101854.78;5024764;28;20441;-69
2022/11/10 05:32:54;;;;;;;33.70;6.47;;;;;;;9.74;100.00;101853.06;5029610;28;20053;-67
2022/11/10 05:35:19;;;;;;;23.20;4.68;;;;;;;9.73;100.00;101857.41;5027284;28;20026;-67
2022/11/10 05:37:45;;;;;;;20.77;4.97;;;;;;;9.73;100.00;101859.16;5024148;28;20036;-68
2022/11/10 05:40:11;;;;;;;20.27;4.32;;;;;;;9.74;100.00;101868.81;5015854;28;20030;-67
2022/11/10 05:42:48;;;;;;;20.50;5.30;;;;;;;9.75;100.00;101858.38;5018977;28;20056;-68
2022/11/10 05:45:14;;;;;;;27.70;4.78;;;;;;;9.73;100.00;101853.91;5025579;28;20072;-67
2022/11/10 05:47:40;;;;;;;24.42;4.18;;;;;;;9.74;100.00;101845.16;5017645;28;20033;-67
2022/11/10 05:50:07;;;;;;;27.88;5.20;;;;;;;9.71;100.00;101850.31;5026115;28;20393;-68
2022/11/10 05:52:33;;;;;;;18.52;4.13;;;;;;;9.74;100.00;101851.34;5029998;28;20037;-69
2022/11/10 05:54:58;;;;;;;32.72;5.28;;;;;;;9.79;100.00;101855.03;5019479;28;20032;-66
2022/11/10 05:57:24;;;;;;;26.13;4.25;;;;;;;9.76;100.00;101860.16;5023549;28;20490;-67
2022/11/10 05:59:50;;;;;;;28.48;4.93;;;;;;;9.74;100.00;101861.84;5022378;28;20054;-67
2022/11/10 06:02:15;;;;;;;30.40;4.60;;;;;;;9.73;100.00;101867.94;5032117;28;20036;-67
2022/11/10 06:04:40;;;;;;;26.70;4.28;;;;;;;9.73;100.00;101874.94;5035000;28;20022;-68
2022/11/10 06:07:08;;;;;;;25.55;5.18;;;;;;;9.71;100.00;101880.16;5019645;28;20021;-67
2022/11/10 06:09:34;;;;;;;23.38;4.32;;;;;;;9.72;100.00;101887.16;5024932;28;20685;-67
2022/11/10 06:12:00;;;;;;;22.77;4.55;;;;;;;9.73;100.00;101886.34;5029400;28;20029;-67
2022/11/10 06:14:25;;;;;;;28.90;5.80;;;;;;;9.70;100.00;101902.00;5030963;28;20584;-67
2022/11/10 06:16:51;;;;;;;25.75;4.97;;;;;;;9.71;100.00;101895.91;5028889;28;20029;-67
2022/11/10 06:19:16;;;;;;;17.52;3.63;;;;;;;9.68;100.00;101897.53;5021756;28;20120;-69
2022/11/10 06:21:41;;;;;;;26.83;3.92;;;;;;;9.70;100.00;101898.47;5027017;28;20079;-69
2022/11/10 06:24:07;;;;;;;19.90;4.18;;;;;;;9.67;100.00;101898.34;5018049;28;20045;-69
2022/11/10 06:26:32;;;;;;;18.20;4.30;;;;;;;9.65;100.00;101908.81;5023427;28;20032;-69
2022/11/10 06:28:58;;;;;;;22.58;4.82;;;;;;;9.65;100.00;101908.81;5027128;28;20048;-69
2022/11/10 06:31:23;;;;;;;23.80;3.80;;;;;;;9.68;100.00;101918.53;5028337;28;20021;-68
2022/11/10 06:33:48;;;;;;;17.73;4.28;;;;;;;9.67;100.00;101928.19;5036151;28;20029;-67
2022/11/10 06:36:14;;;;;;;22.90;3.95;;;;;;;9.72;100.00;101928.34;5031955;28;20029;-68
2022/11/10 06:38:40;;;;;;;21.55;4.18;;;;;;;9.72;100.00;101923.97;5020422;28;20026;-69
2022/11/10 06:41:05;;;;;;;24.17;4.45;;;;;;;9.72;100.00;101926.59;5046820;28;20028;-69
2022/11/10 06:43:31;;;;;;;16.85;3.45;;;;;;;9.75;100.00;101934.63;5054693;28;20365;-67
2022/11/10 06:45:56;;;;;;;20.05;4.10;;;;;;;9.77;100.00;101939.91;5029607;28;20169;-68
2022/11/10 06:48:21;;;;;;;29.77;4.63;;;;;;;9.76;100.00;101949.53;5026861;28;20026;-66
2022/11/10 06:50:50;;;;;;;22.65;4.60;;;;;;;9.82;100.00;101966.38;5038715;28;20462;-68
2022/11/10 06:53:16;;;;;;;24.70;3.70;;;;;;;9.85;100.00;101966.47;5043696;28;20031;-68
2022/11/10 06:55:41;;;;;;;18.63;3.35;;;;;;;9.90;100.00;101965.84;5044892;28;20382;-67
2022/11/10 06:58:08;;;;;;;24.35;4.18;;;;;;;9.92;100.00;101976.41;5041883;28;20082;-69
2022/11/10 07:00:33;;;;;;;23.95;3.70;;;;;;;9.88;100.00;101979.75;5041690;28;20033;-69
2022/11/10 07:03:06;;;;;;;21.77;3.70;;;;;;;9.88;100.00;101985.03;5039494;28;20021;-68
2022/11/10 07:05:34;;;;;;;21.33;3.75;;;;;;;9.86;100.00;101986.69;5042473;28;20095;-69
2022/11/10 07:08:15;;;;;;;19.27;3.97;;;;;;;9.86;100.00;101992.84;5042847;28;20050;-68
2022/11/10 07:10:41;;;;;;;27.73;3.90;;;;;;;9.88;100.00;101985.03;5040385;28;20032;-69
2022/11/10 07:13:08;;;;;;;34.83;5.22;;;;;;;9.90;100.00;101973.72;5043644;28;20461;-69
2022/11/10 07:15:34;;;;;;;26.77;4.50;;;;;;;9.93;100.00;101984.34;5013597;28;20433;-68
2022/11/10 07:18:04;;;;;;;27.38;4.25;;;;;;;9.96;100.00;101966.03;5015445;28;20026;-69
2022/11/10 07:20:30;;;;;;;28.92;4.20;;;;;;;9.98;100.00;101966.09;5015180;28;20026;-68
2022/11/10 07:22:59;;;;;;;21.92;4.22;;;;;;;10.00;100.00;101969.69;5015914;28;20462;-69
2022/11/10 07:25:24;;;;;;;20.80;4.13;;;;;;;9.99;100.00;101962.63;5025860;28;20109;-68
2022/11/10 07:27:57;;;;;;;23.30;4.65;;;;;;;10.02;100.00;101977.63;5027778;28;20109;-68
2022/11/10 07:30:23;;;;;;;17.77;3.90;;;;;;;10.05;100.00;101988.25;5025696;28;20021;-69
2022/11/10 07:33:06;;;;;;;19.23;4.45;;;;;;;10.12;100.00;101988.56;5016765;28;20559;-68
2022/11/10 07:35:33;;;;;;;23.57;4.60;;;;;;;10.10;100.00;101995.47;5026930;28;20076;-69
2022/11/10 07:38:04;;;;;;;18.52;3.25;;;;;;;10.13;100.00;101997.31;5035789;28;20026;-69
2022/11/10 07:40:30;;;;;;;22.38;3.70;;;;;;;10.18;100.00;101997.50;5034058;28;20022;-69
2022/11/10 07:42:56;;;;;;;22.63;4.22;;;;;;;10.22;100.00;102012.56;5026675;28;20074;-69
2022/11/10 07:45:21;;;;;;;23.02;3.60;;;;;;;10.27;100.00;102005.75;5044127;28;20029;-69
2022/11/10 07:47:47;;;;;;;16.42;3.42;;;;;;;10.30;100.00;102004.09;5045407;28;20037;-69
2022/11/10 07:50:12;;;;;;;22.20;4.22;;;;;;;10.42;100.00;101994.91;5032115;28;20120;-69
2022/11/10 07:52:38;;;;;;;16.48;4.07;;;;;;;10.44;100.00;101991.50;5035130;28;20052;-68
2022/11/10 07:55:05;;;;;;;28.70;3.47;;;;;;;10.50;100.00;102005.69;5025283;28;20021;-69
2022/11/10 07:57:31;;;;;;;21.83;3.90;;;;;;;10.61;100.00;102012.25;5035675;28;20170;-69
2022/11/10 07:59:57;;;;;;;20.58;3.72;;;;;;;10.65;100.00;102019.41;5039337;28;20025;-68
2022/11/10 08:02:22;;;;;;;30.88;3.97;;;;;;;10.71;100.00;102009.09;5051067;28;20021;-69
2022/11/10 08:04:47;;;;;;;26.17;4.00;;;;;;;10.78;100.00;102024.28;5039209;28;20009;-69
2022/11/10 08:07:13;;;;;;;18.30;3.30;;;;;;;10.86;100.00;102021.00;5045642;28;20365;-69
2022/11/10 08:09:38;;;;;;;23.02;3.63;;;;;;;10.93;100.00;102030.88;5045981;28;20023;-69
2022/11/10 08:12:04;;;;;;;17.08;3.92;;;;;;;10.99;100.00;102031.13;5040703;28;20026;-68
2022/11/10 08:14:29;;;;;;;18.30;2.85;;;;;;;11.04;100.00;102040.06;5049577;28;20048;-69
2022/11/10 08:16:54;;;;;;;17.00;2.88;;;;;;;11.02;100.00;102044.38;5026309;28;20044;-68
2022/11/10 08:19:20;;;;;;;16.05;2.97;;;;;;;11.02;100.00;102054.03;5044565;28;20036;-69
2022/11/10 08:21:45;;;;;;;17.25;3.20;;;;;;;11.08;100.00;102051.59;5046878;28;20116;-69
2022/11/10 08:24:11;;;;;;;20.20;3.17;;;;;;;11.11;100.00;102057.88;5037523;28;20731;-68
2022/11/10 08:26:36;;;;;;;19.00;3.08;;;;;;;11.08;100.00;102057.78;5022088;28;20503;-68
2022/11/10 08:29:01;;;;;;;21.70;3.28;;;;;;;11.08;100.00;102057.78;5027541;28;20027;-69
2022/11/10 08:31:27;;;;;;;11.77;2.10;;;;;;;11.16;100.00;102062.41;5019853;28;20030;-68
2022/11/10 08:33:52;;;;;;;22.25;3.47;;;;;;;11.12;100.00;102070.19;5032773;28;20388;-69
2022/11/10 08:36:17;;;;;;;15.48;3.05;;;;;;;11.11;100.00;102062.25;5015868;28;20447;-68
2022/11/10 08:38:43;;;;;;;16.67;2.90;;;;;;;11.07;100.00;102066.50;5049331;28;20033;-68
2022/11/10 08:41:08;;;;;;;16.98;3.10;;;;;;;11.14;100.00;102071.13;5035527;28;20037;-69
2022/11/10 08:43:33;;;;;;;24.23;3.63;;;;;;;11.14;100.00;102081.66;5034692;28;20449;-69
2022/11/10 08:46:00;;;;;;;24.30;4.25;;;;;;;11.19;100.00;102080.94;5033045;28;20427;-69
2022/11/10 08:48:26;;;;;;;16.00;3.30;;;;;;;11.29;100.00;102080.41;5050023;28;20473;-69
2022/11/10 08:50:52;;;;;;;24.67;4.35;;;;;;;11.37;100.00;102084.19;5024694;28;20029;-68
2022/11/10 08:53:22;;;;;;;15.90;3.40;;;;;;;11.45;100.00;102068.66;5024929;28;20029;-68
2022/11/10 08:55:48;;;;;;;19.38;2.85;;;;;;;11.58;100.00;102077.81;5028270;28;20050;-69
2022/11/10 08:58:20;;;;;;;18.75;3.22;;;;;;;11.70;100.00;102079.97;5046784;28;20545;-68
2022/11/10 09:00:45;;;;;;;21.05;3.13;;;;;;;11.74;100.00;102072.19;5030311;28;20108;-69
2022/11/10 09:03:13;;;;;;;18.00;3.10;;;;;;;11.82;100.00;102065.41;5022082;28;20109;-67
2022/11/10 09:05:39;;;;;;;20.63;3.55;;;;;;;12.02;100.00;102066.91;5037508;28;20028;-69
2022/11/10 09:08:05;;;;;;;25.27;3.80;;;;;;;12.12;100.00;102075.16;5036875;28;20036;-68
2022/11/10 09:10:33;;;;;;;16.63;2.58;;;;;;;12.22;100.00;102072.78;5024600;28;20029;-68
2022/11/10 09:13:00;;;;;;;14.07;2.72;;;;;;;12.45;100.00;102087.56;5025318;28;20519;-69
2022/11/10 09:15:25;;;;;;;12.90;3.05;;;;;;;12.51;100.00;102078.00;5043461;28;20043;-68
2022/11/10 09:17:51;;;;;;;15.68;2.92;;;;;;;12.68;100.00;102091.69;5038614;28;20029;-68
2022/11/10 09:20:16;;;;;;;18.42;2.72;;;;;;;12.70;100.00;102082.09;5020254;28;20044;-68
2022/11/10 09:22:41;;;;;;;15.13;2.63;;;;;;;12.81;100.00;102078.88;5048868;28;20025;-67
2022/11/10 09:25:07;;;;;;;12.93;2.65;;;;;;;12.95;100.00;102088.91;5037763;28;20377;-68
2022/11/10 09:27:37;;;;;;;21.80;3.35;;;;;;;13.01;100.00;102091.75;5032599;28;20099;-69
2022/11/10 09:30:06;;;;;;;13.02;2.53;;;;;;;13.21;100.00;102100.19;5026753;28;20040;-67
2022/11/10 09:32:32;;;;;;;22.50;3.13;;;;;;;13.26;100.00;102097.66;5048803;28;20104;-68
2022/11/10 09:34:58;;;;;;;15.02;2.38;;;;;;;13.39;100.00;102105.09;5035078;28;20153;-69
2022/11/10 09:37:23;;;;;;;14.85;2.55;;;;;;;13.46;100.00;102104.38;5038153;28;20025;-68
2022/11/10 09:39:49;;;;;;;19.40;2.72;;;;;;;13.40;100.00;102111.25;5033143;28;20052;-67
2022/11/10 09:42:38;;;;;;;21.17;3.13;;;;;;;13.57;100.00;102119.63;5049223;28;20043;-68
2022/11/10 09:45:25;;;;;;;12.93;2.33;;;;;;;13.65;100.00;102132.16;5021359;28;20031;-68
2022/11/10 09:48:06;;;;;;;18.88;3.17;;;;;;;13.69;100.00;102124.28;5032824;28;20508;-69
2022/11/10 09:50:47;;;;;;;22.98;3.15;;;;;;;13.91;100.00;102123.06;5025151;28;20484;-69
2022/11/10 09:53:18;;;;;;;25.67;3.25;;;;;;;13.93;100.00;102137.22;5040259;28;20029;-68
2022/11/10 09:55:48;;;;;;;21.10;2.30;;;;;;;13.89;100.00;102149.50;5037198;28;20062;-68
2022/11/10 09:58:15;;;;;;;18.65;3.03;;;;;;;14.04;100.00;102162.19;5020335;28;20037;-67
2022/11/10 10:00:49;;;;;;;16.85;2.40;;;;;;;14.06;100.00;102167.53;5043651;28;20341;-68
2022/11/10 10:03:22;;;;;;;23.25;3.20;;;;;;;13.96;100.00;102182.31;5025368;28;20021;-68
2022/11/10 10:05:50;;;;;;;17.95;4.13;;;;;;;13.91;100.00;102183.94;5019615;28;20068;-68
2022/11/10 10:08:43;;;;;;;16.35;3.45;;;;;;;13.94;100.00;102199.88;5021468;28;20022;-67
2022/11/10 10:11:55;;;;;;;15.90;2.63;;;;;;;13.99;100.00;102193.84;5025263;28;21017;-68
2022/11/10 10:14:23;;;;;;;14.57;2.28;;;;;;;13.94;100.00;102206.06;5021625;28;20026;-68
2022/11/10 10:16:57;;;;;;;17.98;3.17;;;;;;;14.10;100.00;102202.03;5031379;28;20033;-67
2022/11/10 10:20:01;;;;;;;17.95;2.97;;;;;;;14.31;100.00;102196.34;5033932;28;20076;-68
2022/11/10 10:22:53;;;;;;;14.95;2.17;;;;;;;14.43;100.00;102189.53;5014927;28;20045;-69
2022/11/10 10:25:22;;;;;;;16.40;2.75;;;;;;;14.48;100.00;102183.47;5026180;28;20033;-68
2022/11/10 10:27:56;;;;;;;16.45;2.85;;;;;;;14.41;100.00;102192.16;5024787;28;20033;-69
2022/11/10 10:30:22;;;;;;;17.58;2.53;;;;;;;14.37;100.00;102198.25;5028866;28;20457;-69
2022/11/10 10:32:55;;;;;;;11.98;1.92;;;;;;;14.42;100.00;102190.38;5032055;28;20104;-69
2022/11/10 10:35:21;;;;;;;;;;;;;;;14.36;100.00;102188.50;5032193;28;20026;-69
2022/11/10 10:37:52;;;;;;;14.52;2.17;;;;;;;14.53;100.00;102201.22;5028289;28;19917;-67
2022/11/10 10:40:20;;;;;;;13.07;2.13;;;;;;;14.31;100.00;102203.38;5049675;28;20039;-68
2022/11/10 10:42:46;;;;;;;13.63;2.80;;;;;;;14.28;100.00;102205.97;5027806;28;20033;-69
2022/11/10 10:45:26;;;;;;;21.73;2.75;;;;;;;14.21;100.00;102222.59;5022556;28;20072;-70
2022/11/10 10:47:53;;;;;;;18.25;2.05;;;;;;;14.07;100.00;102217.84;5025777;28;20040;-69
2022/11/10 10:50:31;;;;;;;21.17;3.78;;;;;;;14.09;100.00;102215.25;5041408;28;20021;-69
2022/11/10 10:53:15;;;;;;;15.52;2.63;;;;;;;13.99;100.00;102219.41;5032375;28;20071;-69
2022/11/10 10:55:48;;;;;;;10.90;1.70;;;;;;;14.01;100.00;102228.28;5039905;28;20052;-69
2022/11/10 10:58:28;;;;;;;13.75;2.17;;;;;;;13.82;100.00;102227.84;5025982;28;20065;-70
2022/11/10 11:01:01;;;;;;;18.80;2.40;;;;;;;13.77;100.00;102210.94;5035659;28;20029;-69
2022/11/10 11:03:37;;;;;;;12.32;2.75;;;;;;;13.82;100.00;102230.47;5037052;28;20048;-70
2022/11/10 11:06:15;;;;;;;20.73;2.28;;;;;;;13.93;100.00;102219.25;5040495;28;20049;-70
2022/11/10 11:09:08;;;;;;;16.42;2.80;;;;;;;14.18;100.00;102238.41;5044048;28;20091;-70
2022/11/10 11:11:38;;;;;;;12.10;2.38;;;;;;;14.23;100.00;102244.69;5030292;28;20048;-70
2022/11/10 11:14:25;;;;;;;17.17;2.22;;;;;;;14.31;100.00;102249.31;5016996;28;20030;-69
2022/11/10 11:16:55;;;;;;;18.92;2.30;;;;;;;14.53;100.00;102255.13;5028396;28;20029;-70
2022/11/10 11:19:35;;;;;;;11.85;2.63;;;;;;;14.65;100.00;102250.13;5033140;28;20633;-69
2022/11/10 11:22:18;;;;;;;15.65;2.75;;;;;;;14.94;100.00;102259.56;5033877;28;20453;-70
2022/11/10 11:25:26;;;;;;;16.63;2.15;;;;;;;15.13;100.00;102259.09;5028480;28;20131;-69
2022/11/10 11:28:27;;;;;;;15.10;2.30;;;;;;;15.07;100.00;102273.97;5009777;28;20045;-70
2022/11/10 11:31:09;;;;;;;13.05;2.10;;;;;;;14.95;100.00;102270.19;5015127;28;20411;-69
2022/11/10 11:33:37;;;;;;;10.25;2.38;;;;;;;14.77;100.00;102265.41;5015908;28;20480;-70
2022/11/10 11:36:32;;;;;;;14.35;5.05;;;;;;;14.61;100.00;102268.50;5019529;28;20048;-70